sensor_id;sensor_type;location;lat;lon;timestamp;temperature;humidity
48515;DHT22;34309;47.260;2.796;2023-02-03T00:00:32;21.80;18.80
48515;DHT22;34309;47.260;2.796;2023-02-03T00:03:06;21.70;18.90
48515;DHT22;34309;47.260;2.796;2023-02-03T00:05:40;21.70;18.90
48515;DHT22;34309;47.260;2.796;2023-02-03T00:08:15;21.70;19.00
48515;DHT22;34309;47.260;2.796;2023-02-03T00:10:53;21.60;19.10
48515;DHT22;34309;47.260;2.796;2023-02-03T00:13:29;21.60;19.10
48515;DHT22;34309;47.260;2.796;2023-02-03T00:16:03;21.70;19.20
48515;DHT22;34309;47.260;2.796;2023-02-03T00:18:37;21.70;19.20
48515;DHT22;34309;47.260;2.796;2023-02-03T00:21:11;21.70;19.20
48515;DHT22;34309;47.260;2.796;2023-02-03T00:23:46;21.80;19.20
48515;DHT22;34309;47.260;2.796;2023-02-03T00:26:19;21.90;19.10
48515;DHT22;34309;47.260;2.796;2023-02-03T00:28:54;21.90;19.20
48515;DHT22;34309;47.260;2.796;2023-02-03T00:31:28;21.90;19.00
48515;DHT22;34309;47.260;2.796;2023-02-03T00:34:02;22.00;19.10
48515;DHT22;34309;47.260;2.796;2023-02-03T00:36:35;22.20;19.00
48515;DHT22;34309;47.260;2.796;2023-02-03T00:39:09;22.30;18.90
48515;DHT22;34309;47.260;2.796;2023-02-03T00:41:42;22.30;18.60
48515;DHT22;34309;47.260;2.796;2023-02-03T00:44:13;22.30;18.50
48515;DHT22;34309;47.260;2.796;2023-02-03T00:46:47;22.30;18.60
48515;DHT22;34309;47.260;2.796;2023-02-03T00:49:21;22.30;18.60
48515;DHT22;34309;47.260;2.796;2023-02-03T00:51:54;22.40;18.60
48515;DHT22;34309;47.260;2.796;2023-02-03T00:54:28;22.30;18.60
48515;DHT22;34309;47.260;2.796;2023-02-03T00:57:02;22.30;18.70
48515;DHT22;34309;47.260;2.796;2023-02-03T00:59:37;22.30;18.70
48515;DHT22;34309;47.260;2.796;2023-02-03T01:02:12;22.30;18.70
48515;DHT22;34309;47.260;2.796;2023-02-03T01:04:45;22.30;18.60
48515;DHT22;34309;47.260;2.796;2023-02-03T01:07:19;22.30;18.60
48515;DHT22;34309;47.260;2.796;2023-02-03T01:09:53;22.30;18.60
48515;DHT22;34309;47.260;2.796;2023-02-03T01:12:28;22.30;18.60
48515;DHT22;34309;47.260;2.796;2023-02-03T01:15:04;22.30;18.50
48515;DHT22;34309;47.260;2.796;2023-02-03T01:17:38;22.20;18.40
48515;DHT22;34309;47.260;2.796;2023-02-03T01:20:12;22.30;18.50
48515;DHT22;34309;47.260;2.796;2023-02-03T01:22:48;22.20;18.50
48515;DHT22;34309;47.260;2.796;2023-02-03T01:25:21;22.20;18.40
48515;DHT22;34309;47.260;2.796;2023-02-03T01:27:57;22.20;18.50
48515;DHT22;34309;47.260;2.796;2023-02-03T01:30:32;22.10;18.50
48515;DHT22;34309;47.260;2.796;2023-02-03T01:33:06;22.10;18.50
48515;DHT22;34309;47.260;2.796;2023-02-03T01:35:39;22.10;18.60
48515;DHT22;34309;47.260;2.796;2023-02-03T01:38:13;22.00;18.40
48515;DHT22;34309;47.260;2.796;2023-02-03T01:40:47;22.00;18.60
48515;DHT22;34309;47.260;2.796;2023-02-03T01:43:31;22.00;18.50
48515;DHT22;34309;47.260;2.796;2023-02-03T01:46:17;22.00;18.60
48515;DHT22;34309;47.260;2.796;2023-02-03T01:48:54;21.90;18.60
48515;DHT22;34309;47.260;2.796;2023-02-03T01:51:29;21.90;18.70
48515;DHT22;34309;47.260;2.796;2023-02-03T01:54:03;21.80;18.70
48515;DHT22;34309;47.260;2.796;2023-02-03T01:56:41;21.80;18.80
48515;DHT22;34309;47.260;2.796;2023-02-03T01:59:18;21.70;18.80
48515;DHT22;34309;47.260;2.796;2023-02-03T02:01:54;21.70;18.70
48515;DHT22;34309;47.260;2.796;2023-02-03T02:04:31;21.70;18.80
48515;DHT22;34309;47.260;2.796;2023-02-03T02:07:07;21.70;18.80
48515;DHT22;34309;47.260;2.796;2023-02-03T02:09:42;21.60;18.70
48515;DHT22;34309;47.260;2.796;2023-02-03T02:12:15;21.60;18.80
48515;DHT22;34309;47.260;2.796;2023-02-03T02:14:49;21.50;18.70
48515;DHT22;34309;47.260;2.796;2023-02-03T02:17:44;21.50;19.40
48515;DHT22;34309;47.260;2.796;2023-02-03T02:20:32;21.50;19.00
48515;DHT22;34309;47.260;2.796;2023-02-03T02:26:50;21.50;19.10
48515;DHT22;34309;47.260;2.796;2023-02-03T02:32:56;21.70;19.10
48515;DHT22;34309;47.260;2.796;2023-02-03T02:35:52;21.70;19.00
48515;DHT22;34309;47.260;2.796;2023-02-03T02:38:38;21.80;19.10
48515;DHT22;34309;47.260;2.796;2023-02-03T02:41:17;21.80;19.00
48515;DHT22;34309;47.260;2.796;2023-02-03T02:43:59;21.90;18.90
48515;DHT22;34309;47.260;2.796;2023-02-03T02:46:39;22.00;18.70
48515;DHT22;34309;47.260;2.796;2023-02-03T02:49:20;22.10;18.70
48515;DHT22;34309;47.260;2.796;2023-02-03T02:51:57;22.10;18.50
48515;DHT22;34309;47.260;2.796;2023-02-03T02:54:33;22.10;18.60
48515;DHT22;34309;47.260;2.796;2023-02-03T02:57:05;22.10;18.50
48515;DHT22;34309;47.260;2.796;2023-02-03T02:59:39;22.10;18.40
48515;DHT22;34309;47.260;2.796;2023-02-03T03:02:13;22.20;18.40
48515;DHT22;34309;47.260;2.796;2023-02-03T03:04:49;22.20;18.50
48515;DHT22;34309;47.260;2.796;2023-02-03T03:07:25;22.20;18.60
48515;DHT22;34309;47.260;2.796;2023-02-03T03:09:57;22.20;18.60
48515;DHT22;34309;47.260;2.796;2023-02-03T03:12:35;22.10;18.60
48515;DHT22;34309;47.260;2.796;2023-02-03T03:15:11;22.10;18.30
48515;DHT22;34309;47.260;2.796;2023-02-03T03:17:50;22.10;18.50
48515;DHT22;34309;47.260;2.796;2023-02-03T03:20:29;22.10;18.30
48515;DHT22;34309;47.260;2.796;2023-02-03T03:23:06;22.10;18.50
48515;DHT22;34309;47.260;2.796;2023-02-03T03:25:45;22.10;18.50
48515;DHT22;34309;47.260;2.796;2023-02-03T03:28:23;22.10;18.40
48515;DHT22;34309;47.260;2.796;2023-02-03T03:30:58;22.00;18.50
48515;DHT22;34309;47.260;2.796;2023-02-03T03:33:32;22.00;18.40
48515;DHT22;34309;47.260;2.796;2023-02-03T03:36:13;22.00;18.60
48515;DHT22;34309;47.260;2.796;2023-02-03T03:38:54;21.90;18.50
48515;DHT22;34309;47.260;2.796;2023-02-03T03:41:37;21.90;18.50
48515;DHT22;34309;47.260;2.796;2023-02-03T03:44:14;21.80;18.50
48515;DHT22;34309;47.260;2.796;2023-02-03T03:46:55;21.80;18.50
48515;DHT22;34309;47.260;2.796;2023-02-03T03:49:35;21.80;18.50
48515;DHT22;34309;47.260;2.796;2023-02-03T03:52:14;21.70;18.60
48515;DHT22;34309;47.260;2.796;2023-02-03T03:54:49;21.70;18.60
48515;DHT22;34309;47.260;2.796;2023-02-03T03:57:27;21.70;18.60
48515;DHT22;34309;47.260;2.796;2023-02-03T04:00:05;21.60;18.60
48515;DHT22;34309;47.260;2.796;2023-02-03T04:02:41;21.60;18.70
48515;DHT22;34309;47.260;2.796;2023-02-03T04:05:18;21.50;18.60
48515;DHT22;34309;47.260;2.796;2023-02-03T04:07:53;21.50;18.80
48515;DHT22;34309;47.260;2.796;2023-02-03T04:10:30;21.50;18.80
48515;DHT22;34309;47.260;2.796;2023-02-03T04:13:05;21.40;18.70
48515;DHT22;34309;47.260;2.796;2023-02-03T04:15:39;21.40;18.70
48515;DHT22;34309;47.260;2.796;2023-02-03T04:18:13;21.40;19.00
48515;DHT22;34309;47.260;2.796;2023-02-03T04:20:47;21.40;19.00
48515;DHT22;34309;47.260;2.796;2023-02-03T04:23:23;21.40;19.10
48515;DHT22;34309;47.260;2.796;2023-02-03T04:26:00;21.40;19.00
48515;DHT22;34309;47.260;2.796;2023-02-03T04:28:33;21.50;19.10
48515;DHT22;34309;47.260;2.796;2023-02-03T04:31:07;21.60;19.00
48515;DHT22;34309;47.260;2.796;2023-02-03T04:33:40;21.70;18.90
48515;DHT22;34309;47.260;2.796;2023-02-03T04:36:14;21.70;18.80
48515;DHT22;34309;47.260;2.796;2023-02-03T04:38:47;21.70;18.80
48515;DHT22;34309;47.260;2.796;2023-02-03T04:41:21;21.80;18.90
48515;DHT22;34309;47.260;2.796;2023-02-03T04:43:56;21.80;18.90
48515;DHT22;34309;47.260;2.796;2023-02-03T04:46:30;21.80;18.70
48515;DHT22;34309;47.260;2.796;2023-02-03T04:49:03;21.80;18.70
48515;DHT22;34309;47.260;2.796;2023-02-03T04:51:37;21.90;18.70
48515;DHT22;34309;47.260;2.796;2023-02-03T04:54:07;21.90;18.70
48515;DHT22;34309;47.260;2.796;2023-02-03T04:56:41;21.90;18.60
48515;DHT22;34309;47.260;2.796;2023-02-03T04:59:10;21.90;18.60
48515;DHT22;34309;47.260;2.796;2023-02-03T05:01:44;22.00;18.60
48515;DHT22;34309;47.260;2.796;2023-02-03T05:04:18;21.90;18.50
48515;DHT22;34309;47.260;2.796;2023-02-03T05:06:51;21.90;18.50
48515;DHT22;34309;47.260;2.796;2023-02-03T05:09:24;21.90;18.50
48515;DHT22;34309;47.260;2.796;2023-02-03T05:11:57;21.90;18.50
48515;DHT22;34309;47.260;2.796;2023-02-03T05:14:31;21.90;18.50
48515;DHT22;34309;47.260;2.796;2023-02-03T05:17:05;21.90;18.60
48515;DHT22;34309;47.260;2.796;2023-02-03T05:19:38;21.90;18.60
48515;DHT22;34309;47.260;2.796;2023-02-03T05:22:12;21.80;18.60
48515;DHT22;34309;47.260;2.796;2023-02-03T05:24:48;21.80;18.60
48515;DHT22;34309;47.260;2.796;2023-02-03T05:27:21;21.80;18.60
48515;DHT22;34309;47.260;2.796;2023-02-03T05:29:55;21.80;18.60
48515;DHT22;34309;47.260;2.796;2023-02-03T05:32:29;21.70;18.70
48515;DHT22;34309;47.260;2.796;2023-02-03T05:35:03;21.70;18.70
48515;DHT22;34309;47.260;2.796;2023-02-03T05:37:36;21.60;18.60
48515;DHT22;34309;47.260;2.796;2023-02-03T05:40:12;21.60;18.70
48515;DHT22;34309;47.260;2.796;2023-02-03T05:43:04;21.60;18.70
48515;DHT22;34309;47.260;2.796;2023-02-03T05:45:38;21.60;18.70
48515;DHT22;34309;47.260;2.796;2023-02-03T05:48:12;21.50;18.80
48515;DHT22;34309;47.260;2.796;2023-02-03T05:50:45;21.50;18.80
48515;DHT22;34309;47.260;2.796;2023-02-03T05:53:19;21.40;18.70
48515;DHT22;34309;47.260;2.796;2023-02-03T05:55:55;21.40;18.80
48515;DHT22;34309;47.260;2.796;2023-02-03T05:58:28;21.40;18.80
48515;DHT22;34309;47.260;2.796;2023-02-03T06:01:02;21.30;18.70
48515;DHT22;34309;47.260;2.796;2023-02-03T06:03:37;21.30;18.90
48515;DHT22;34309;47.260;2.796;2023-02-03T06:06:10;21.30;18.90
48515;DHT22;34309;47.260;2.796;2023-02-03T06:08:44;21.30;18.90
48515;DHT22;34309;47.260;2.796;2023-02-03T06:11:19;21.20;19.20
48515;DHT22;34309;47.260;2.796;2023-02-03T06:13:53;21.30;19.10
48515;DHT22;34309;47.260;2.796;2023-02-03T06:16:27;21.30;19.10
48515;DHT22;34309;47.260;2.796;2023-02-03T06:19:01;21.30;19.00
48515;DHT22;34309;47.260;2.796;2023-02-03T06:21:35;21.30;19.00
48515;DHT22;34309;47.260;2.796;2023-02-03T06:24:09;21.40;19.00
48515;DHT22;34309;47.260;2.796;2023-02-03T06:26:44;21.40;19.00
48515;DHT22;34309;47.260;2.796;2023-02-03T06:29:19;21.50;18.90
48515;DHT22;34309;47.260;2.796;2023-02-03T06:31:52;21.50;18.80
48515;DHT22;34309;47.260;2.796;2023-02-03T06:34:26;21.60;18.80
48515;DHT22;34309;47.260;2.796;2023-02-03T06:37:00;21.60;18.90
48515;DHT22;34309;47.260;2.796;2023-02-03T06:39:34;21.60;18.80
48515;DHT22;34309;47.260;2.796;2023-02-03T06:42:09;21.70;18.80
48515;DHT22;34309;47.260;2.796;2023-02-03T06:44:42;21.70;18.60
48515;DHT22;34309;47.260;2.796;2023-02-03T06:47:16;21.70;18.60
48515;DHT22;34309;47.260;2.796;2023-02-03T06:49:50;21.70;18.70
48515;DHT22;34309;47.260;2.796;2023-02-03T06:52:24;21.70;18.50
48515;DHT22;34309;47.260;2.796;2023-02-03T06:54:57;21.70;18.60
48515;DHT22;34309;47.260;2.796;2023-02-03T06:57:32;21.70;18.50
48515;DHT22;34309;47.260;2.796;2023-02-03T07:00:07;21.70;18.60
48515;DHT22;34309;47.260;2.796;2023-02-03T07:02:41;21.70;18.50
48515;DHT22;34309;47.260;2.796;2023-02-03T07:05:15;21.70;18.50
48515;DHT22;34309;47.260;2.796;2023-02-03T07:07:49;21.70;18.60
48515;DHT22;34309;47.260;2.796;2023-02-03T07:10:23;21.60;18.40
48515;DHT22;34309;47.260;2.796;2023-02-03T07:13:02;21.60;18.50
48515;DHT22;34309;47.260;2.796;2023-02-03T07:15:36;21.60;18.60
48515;DHT22;34309;47.260;2.796;2023-02-03T07:18:10;21.60;18.50
48515;DHT22;34309;47.260;2.796;2023-02-03T07:20:44;21.50;18.50
48515;DHT22;34309;47.260;2.796;2023-02-03T07:23:18;21.50;18.50
48515;DHT22;34309;47.260;2.796;2023-02-03T07:25:51;21.50;18.50
48515;DHT22;34309;47.260;2.796;2023-02-03T07:28:27;21.40;18.40
48515;DHT22;34309;47.260;2.796;2023-02-03T07:31:00;21.40;18.50
48515;DHT22;34309;47.260;2.796;2023-02-03T07:33:35;21.40;18.70
48515;DHT22;34309;47.260;2.796;2023-02-03T07:36:10;21.30;18.60
48515;DHT22;34309;47.260;2.796;2023-02-03T07:38:44;21.30;18.70
48515;DHT22;34309;47.260;2.796;2023-02-03T07:41:17;21.30;18.80
48515;DHT22;34309;47.260;2.796;2023-02-03T07:43:52;21.30;18.80
48515;DHT22;34309;47.260;2.796;2023-02-03T07:46:26;21.40;18.80
48515;DHT22;34309;47.260;2.796;2023-02-03T07:49:00;21.60;18.80
48515;DHT22;34309;47.260;2.796;2023-02-03T07:51:36;21.70;19.20
48515;DHT22;34309;47.260;2.796;2023-02-03T07:54:12;21.80;18.50
48515;DHT22;34309;47.260;2.796;2023-02-03T07:56:46;22.00;18.40
48515;DHT22;34309;47.260;2.796;2023-02-03T07:59:21;22.10;18.40
48515;DHT22;34309;47.260;2.796;2023-02-03T08:01:56;22.20;18.30
48515;DHT22;34309;47.260;2.796;2023-02-03T08:04:30;22.20;18.10
48515;DHT22;34309;47.260;2.796;2023-02-03T08:07:04;22.30;18.00
48515;DHT22;34309;47.260;2.796;2023-02-03T08:09:38;22.40;18.00
48515;DHT22;34309;47.260;2.796;2023-02-03T08:12:12;22.40;17.90
48515;DHT22;34309;47.260;2.796;2023-02-03T08:14:47;22.40;17.90
48515;DHT22;34309;47.260;2.796;2023-02-03T08:17:21;22.40;17.80
48515;DHT22;34309;47.260;2.796;2023-02-03T08:19:54;22.40;17.90
48515;DHT22;34309;47.260;2.796;2023-02-03T08:22:28;22.40;17.90
48515;DHT22;34309;47.260;2.796;2023-02-03T08:25:02;22.40;18.00
48515;DHT22;34309;47.260;2.796;2023-02-03T08:27:36;22.40;18.00
48515;DHT22;34309;47.260;2.796;2023-02-03T08:30:12;22.40;18.10
48515;DHT22;34309;47.260;2.796;2023-02-03T08:32:46;22.30;18.00
48515;DHT22;34309;47.260;2.796;2023-02-03T08:35:26;22.30;18.00
48515;DHT22;34309;47.260;2.796;2023-02-03T08:38:12;22.30;18.00
48515;DHT22;34309;47.260;2.796;2023-02-03T08:40:46;22.30;17.90
48515;DHT22;34309;47.260;2.796;2023-02-03T08:43:19;22.30;18.00
48515;DHT22;34309;47.260;2.796;2023-02-03T08:46:01;22.20;18.20
48515;DHT22;34309;47.260;2.796;2023-02-03T08:48:35;22.10;18.10
48515;DHT22;34309;47.260;2.796;2023-02-03T08:51:10;22.10;18.00
48515;DHT22;34309;47.260;2.796;2023-02-03T08:53:44;22.10;18.20
48515;DHT22;34309;47.260;2.796;2023-02-03T08:56:17;22.10;19.10
48515;DHT22;34309;47.260;2.796;2023-02-03T08:58:51;22.00;18.30
48515;DHT22;34309;47.260;2.796;2023-02-03T09:01:27;22.00;18.50
48515;DHT22;34309;47.260;2.796;2023-02-03T09:04:00;21.90;18.60
48515;DHT22;34309;47.260;2.796;2023-02-03T09:06:35;21.90;18.80
48515;DHT22;34309;47.260;2.796;2023-02-03T09:09:09;21.80;18.90
48515;DHT22;34309;47.260;2.796;2023-02-03T09:11:43;21.80;19.00
48515;DHT22;34309;47.260;2.796;2023-02-03T09:14:16;21.80;19.10
48515;DHT22;34309;47.260;2.796;2023-02-03T09:16:46;21.80;19.30
48515;DHT22;34309;47.260;2.796;2023-02-03T09:19:20;21.70;19.30
48515;DHT22;34309;47.260;2.796;2023-02-03T09:21:54;21.70;19.60
48515;DHT22;34309;47.260;2.796;2023-02-03T09:24:28;21.70;19.80
48515;DHT22;34309;47.260;2.796;2023-02-03T09:27:02;21.70;19.80
48515;DHT22;34309;47.260;2.796;2023-02-03T09:29:35;21.60;20.00
48515;DHT22;34309;47.260;2.796;2023-02-03T09:32:11;21.60;20.20
48515;DHT22;34309;47.260;2.796;2023-02-03T09:34:45;21.60;20.30
48515;DHT22;34309;47.260;2.796;2023-02-03T09:37:19;21.60;20.40
48515;DHT22;34309;47.260;2.796;2023-02-03T09:39:52;21.70;20.80
48515;DHT22;34309;47.260;2.796;2023-02-03T09:45:47;21.70;20.80
48515;DHT22;34309;47.260;2.796;2023-02-03T09:48:24;21.80;20.80
48515;DHT22;34309;47.260;2.796;2023-02-03T09:50:59;21.80;20.80
48515;DHT22;34309;47.260;2.796;2023-02-03T09:53:36;21.80;20.90
48515;DHT22;34309;47.260;2.796;2023-02-03T09:56:22;21.80;20.90
48515;DHT22;34309;47.260;2.796;2023-02-03T09:58:59;21.90;20.90
48515;DHT22;34309;47.260;2.796;2023-02-03T10:01:37;21.90;20.90
48515;DHT22;34309;47.260;2.796;2023-02-03T10:04:24;21.90;21.10
48515;DHT22;34309;47.260;2.796;2023-02-03T10:07:07;21.90;21.10
48515;DHT22;34309;47.260;2.796;2023-02-03T10:09:50;21.90;21.20
48515;DHT22;34309;47.260;2.796;2023-02-03T10:12:42;21.90;21.40
48515;DHT22;34309;47.260;2.796;2023-02-03T10:15:42;21.90;21.50
48515;DHT22;34309;47.260;2.796;2023-02-03T10:18:21;21.90;21.50
48515;DHT22;34309;47.260;2.796;2023-02-03T10:21:02;21.90;21.60
48515;DHT22;34309;47.260;2.796;2023-02-03T10:23:38;21.90;21.70
48515;DHT22;34309;47.260;2.796;2023-02-03T10:26:16;21.90;21.80
48515;DHT22;34309;47.260;2.796;2023-02-03T10:28:54;21.90;21.90
48515;DHT22;34309;47.260;2.796;2023-02-03T10:31:33;21.90;21.80
48515;DHT22;34309;47.260;2.796;2023-02-03T10:34:09;21.90;21.80
48515;DHT22;34309;47.260;2.796;2023-02-03T10:36:53;21.90;21.40
48515;DHT22;34309;47.260;2.796;2023-02-03T10:39:30;21.90;21.30
48515;DHT22;34309;47.260;2.796;2023-02-03T10:42:06;21.90;21.50
48515;DHT22;34309;47.260;2.796;2023-02-03T10:44:44;21.90;21.40
48515;DHT22;34309;47.260;2.796;2023-02-03T10:47:23;21.90;21.50
48515;DHT22;34309;47.260;2.796;2023-02-03T10:49:57;21.90;21.50
48515;DHT22;34309;47.260;2.796;2023-02-03T10:52:35;21.90;21.60
48515;DHT22;34309;47.260;2.796;2023-02-03T10:55:29;21.90;21.60
48515;DHT22;34309;47.260;2.796;2023-02-03T10:58:12;21.90;21.50
48515;DHT22;34309;47.260;2.796;2023-02-03T11:00:53;21.90;21.30
48515;DHT22;34309;47.260;2.796;2023-02-03T11:03:24;21.80;21.20
48515;DHT22;34309;47.260;2.796;2023-02-03T11:06:07;21.80;20.90
48515;DHT22;34309;47.260;2.796;2023-02-03T11:08:43;21.80;21.30
48515;DHT22;34309;47.260;2.796;2023-02-03T11:11:21;21.80;21.00
48515;DHT22;34309;47.260;2.796;2023-02-03T11:14:11;21.80;21.10
48515;DHT22;34309;47.260;2.796;2023-02-03T11:16:48;21.80;21.10
48515;DHT22;34309;47.260;2.796;2023-02-03T11:19:22;21.70;21.20
48515;DHT22;34309;47.260;2.796;2023-02-03T11:21:56;21.70;21.20
48515;DHT22;34309;47.260;2.796;2023-02-03T11:24:37;21.70;21.00
48515;DHT22;34309;47.260;2.796;2023-02-03T11:27:13;21.70;21.20
48515;DHT22;34309;47.260;2.796;2023-02-03T11:29:45;21.70;21.00
48515;DHT22;34309;47.260;2.796;2023-02-03T11:32:22;21.70;21.20
48515;DHT22;34309;47.260;2.796;2023-02-03T11:35:01;21.70;21.70
48515;DHT22;34309;47.260;2.796;2023-02-03T11:37:38;21.70;21.30
48515;DHT22;34309;47.260;2.796;2023-02-03T11:40:26;21.70;21.10
48515;DHT22;34309;47.260;2.796;2023-02-03T11:43:03;21.60;21.00
48515;DHT22;34309;47.260;2.796;2023-02-03T11:45:39;21.60;21.00
48515;DHT22;34309;47.260;2.796;2023-02-03T11:48:20;21.60;20.90
48515;DHT22;34309;47.260;2.796;2023-02-03T11:51:03;21.50;21.60
48515;DHT22;34309;47.260;2.796;2023-02-03T11:53:57;21.50;20.70
48515;DHT22;34309;47.260;2.796;2023-02-03T11:56:48;21.50;20.70
48515;DHT22;34309;47.260;2.796;2023-02-03T11:59:39;21.50;20.70
48515;DHT22;34309;47.260;2.796;2023-02-03T12:02:39;21.40;20.60
48515;DHT22;34309;47.260;2.796;2023-02-03T12:05:29;21.40;20.50
48515;DHT22;34309;47.260;2.796;2023-02-03T12:08:13;21.30;20.50
48515;DHT22;34309;47.260;2.796;2023-02-03T12:10:59;21.30;20.40
48515;DHT22;34309;47.260;2.796;2023-02-03T12:13:49;21.30;20.50
48515;DHT22;34309;47.260;2.796;2023-02-03T12:16:44;21.30;20.40
48515;DHT22;34309;47.260;2.796;2023-02-03T12:19:28;21.30;20.30
48515;DHT22;34309;47.260;2.796;2023-02-03T12:22:14;21.20;20.30
48515;DHT22;34309;47.260;2.796;2023-02-03T12:24:56;21.20;20.40
48515;DHT22;34309;47.260;2.796;2023-02-03T12:27:40;21.20;20.30
48515;DHT22;34309;47.260;2.796;2023-02-03T12:30:23;21.10;20.30
48515;DHT22;34309;47.260;2.796;2023-02-03T12:33:00;21.10;20.20
48515;DHT22;34309;47.260;2.796;2023-02-03T12:35:38;21.10;20.20
48515;DHT22;34309;47.260;2.796;2023-02-03T12:38:19;21.10;20.20
48515;DHT22;34309;47.260;2.796;2023-02-03T12:40:55;21.00;20.20
48515;DHT22;34309;47.260;2.796;2023-02-03T12:43:34;21.00;20.20
48515;DHT22;34309;47.260;2.796;2023-02-03T12:46:15;21.00;20.20
48515;DHT22;34309;47.260;2.796;2023-02-03T12:48:53;21.00;20.20
48515;DHT22;34309;47.260;2.796;2023-02-03T12:51:34;20.90;20.10
48515;DHT22;34309;47.260;2.796;2023-02-03T12:54:28;21.00;20.30
48515;DHT22;34309;47.260;2.796;2023-02-03T12:57:14;20.90;20.00
48515;DHT22;34309;47.260;2.796;2023-02-03T12:59:58;20.80;20.10
48515;DHT22;34309;47.260;2.796;2023-02-03T13:02:43;20.90;20.10
48515;DHT22;34309;47.260;2.796;2023-02-03T13:05:25;20.80;20.10
48515;DHT22;34309;47.260;2.796;2023-02-03T13:08:06;20.80;20.10
48515;DHT22;34309;47.260;2.796;2023-02-03T13:10:46;20.80;20.10
48515;DHT22;34309;47.260;2.796;2023-02-03T13:13:38;20.80;20.00
48515;DHT22;34309;47.260;2.796;2023-02-03T13:16:13;20.70;20.20
48515;DHT22;34309;47.260;2.796;2023-02-03T13:18:54;20.70;20.10
48515;DHT22;34309;47.260;2.796;2023-02-03T13:21:29;20.70;20.00
48515;DHT22;34309;47.260;2.796;2023-02-03T13:24:08;20.70;20.30
48515;DHT22;34309;47.260;2.796;2023-02-03T13:29:58;20.60;20.00
48515;DHT22;34309;47.260;2.796;2023-02-03T13:32:49;20.60;20.00
48515;DHT22;34309;47.260;2.796;2023-02-03T13:35:41;20.60;20.00
48515;DHT22;34309;47.260;2.796;2023-02-03T13:38:42;20.60;20.20
48515;DHT22;34309;47.260;2.796;2023-02-03T13:41:24;20.60;20.00
48515;DHT22;34309;47.260;2.796;2023-02-03T13:44:01;20.60;20.00
48515;DHT22;34309;47.260;2.796;2023-02-03T13:46:35;20.50;20.10
48515;DHT22;34309;47.260;2.796;2023-02-03T13:49:09;20.50;20.00
48515;DHT22;34309;47.260;2.796;2023-02-03T13:51:52;20.50;19.90
48515;DHT22;34309;47.260;2.796;2023-02-03T13:54:29;20.50;20.00
48515;DHT22;34309;47.260;2.796;2023-02-03T13:57:14;20.40;20.00
48515;DHT22;34309;47.260;2.796;2023-02-03T13:59:50;20.50;20.00
48515;DHT22;34309;47.260;2.796;2023-02-03T14:02:42;20.50;20.20
48515;DHT22;34309;47.260;2.796;2023-02-03T14:05:41;20.40;20.10
48515;DHT22;34309;47.260;2.796;2023-02-03T14:11:41;20.40;20.00
48515;DHT22;34309;47.260;2.796;2023-02-03T14:14:40;20.40;20.10
48515;DHT22;34309;47.260;2.796;2023-02-03T14:17:54;20.40;20.00
48515;DHT22;34309;47.260;2.796;2023-02-03T14:23:43;20.40;20.20
48515;DHT22;34309;47.260;2.796;2023-02-03T14:26:27;20.40;20.10
48515;DHT22;34309;47.260;2.796;2023-02-03T14:29:05;20.40;20.20
48515;DHT22;34309;47.260;2.796;2023-02-03T14:31:55;20.30;20.20
48515;DHT22;34309;47.260;2.796;2023-02-03T14:34:32;20.30;20.20
48515;DHT22;34309;47.260;2.796;2023-02-03T14:37:19;20.30;20.20
48515;DHT22;34309;47.260;2.796;2023-02-03T14:40:20;20.30;20.20
48515;DHT22;34309;47.260;2.796;2023-02-03T14:43:16;20.30;20.20
48515;DHT22;34309;47.260;2.796;2023-02-03T14:49:05;20.30;20.20
48515;DHT22;34309;47.260;2.796;2023-02-03T14:52:02;20.30;20.30
48515;DHT22;34309;47.260;2.796;2023-02-03T14:54:53;20.30;20.20
48515;DHT22;34309;47.260;2.796;2023-02-03T14:57:37;20.30;20.20
48515;DHT22;34309;47.260;2.796;2023-02-03T15:00:28;20.30;20.20
48515;DHT22;34309;47.260;2.796;2023-02-03T15:03:24;20.20;20.20
48515;DHT22;34309;47.260;2.796;2023-02-03T15:06:02;20.20;20.30
48515;DHT22;34309;47.260;2.796;2023-02-03T15:08:39;20.20;20.30
48515;DHT22;34309;47.260;2.796;2023-02-03T15:11:29;20.20;20.30
48515;DHT22;34309;47.260;2.796;2023-02-03T15:14:17;20.20;20.30
48515;DHT22;34309;47.260;2.796;2023-02-03T15:16:57;20.20;20.30
48515;DHT22;34309;47.260;2.796;2023-02-03T15:19:34;20.20;20.30
48515;DHT22;34309;47.260;2.796;2023-02-03T15:22:18;20.20;20.20
48515;DHT22;34309;47.260;2.796;2023-02-03T15:24:55;20.20;20.30
48515;DHT22;34309;47.260;2.796;2023-02-03T15:27:31;20.20;20.30
48515;DHT22;34309;47.260;2.796;2023-02-03T15:30:15;20.20;20.40
48515;DHT22;34309;47.260;2.796;2023-02-03T15:32:56;20.20;20.40
48515;DHT22;34309;47.260;2.796;2023-02-03T15:35:34;20.20;20.40
48515;DHT22;34309;47.260;2.796;2023-02-03T15:38:13;20.20;20.30
48515;DHT22;34309;47.260;2.796;2023-02-03T15:40:50;20.10;20.30
48515;DHT22;34309;47.260;2.796;2023-02-03T15:43:30;20.20;20.40
48515;DHT22;34309;47.260;2.796;2023-02-03T15:46:08;20.10;20.30
48515;DHT22;34309;47.260;2.796;2023-02-03T15:48:52;20.10;20.30
48515;DHT22;34309;47.260;2.796;2023-02-03T15:51:32;20.10;20.20
48515;DHT22;34309;47.260;2.796;2023-02-03T15:54:11;20.10;20.20
48515;DHT22;34309;47.260;2.796;2023-02-03T15:56:49;20.10;20.20
48515;DHT22;34309;47.260;2.796;2023-02-03T15:59:31;20.10;20.20
48515;DHT22;34309;47.260;2.796;2023-02-03T16:02:13;20.10;20.30
48515;DHT22;34309;47.260;2.796;2023-02-03T16:04:49;20.10;20.40
48515;DHT22;34309;47.260;2.796;2023-02-03T16:07:28;20.10;20.40
48515;DHT22;34309;47.260;2.796;2023-02-03T16:10:02;20.10;20.40
48515;DHT22;34309;47.260;2.796;2023-02-03T16:12:36;20.10;20.60
48515;DHT22;34309;47.260;2.796;2023-02-03T16:15:21;20.00;20.40
48515;DHT22;34309;47.260;2.796;2023-02-03T16:17:55;20.00;20.40
48515;DHT22;34309;47.260;2.796;2023-02-03T16:20:29;20.10;20.50
48515;DHT22;34309;47.260;2.796;2023-02-03T16:23:18;20.00;20.40
48515;DHT22;34309;47.260;2.796;2023-02-03T16:26:05;20.00;20.40
48515;DHT22;34309;47.260;2.796;2023-02-03T16:28:39;20.00;20.30
48515;DHT22;34309;47.260;2.796;2023-02-03T16:31:42;20.00;21.00
48515;DHT22;34309;47.260;2.796;2023-02-03T16:34:34;20.00;20.50
48515;DHT22;34309;47.260;2.796;2023-02-03T16:37:26;20.00;20.40
48515;DHT22;34309;47.260;2.796;2023-02-03T16:40:21;20.00;20.40
48515;DHT22;34309;47.260;2.796;2023-02-03T16:43:13;20.00;20.40
48515;DHT22;34309;47.260;2.796;2023-02-03T16:46:10;20.00;20.30
48515;DHT22;34309;47.260;2.796;2023-02-03T16:49:01;20.00;20.30
48515;DHT22;34309;47.260;2.796;2023-02-03T16:51:52;20.00;20.40
48515;DHT22;34309;47.260;2.796;2023-02-03T16:54:26;20.00;20.40
48515;DHT22;34309;47.260;2.796;2023-02-03T16:57:01;20.10;20.50
48515;DHT22;34309;47.260;2.796;2023-02-03T16:59:35;20.10;20.50
48515;DHT22;34309;47.260;2.796;2023-02-03T17:02:09;20.20;20.40